createdAt,value
2023-04-15T00:02:45.817Z,65.11
2023-04-15T00:07:47.995Z,67.66
2023-04-15T00:12:52.367Z,68.47
2023-04-15T00:17:54.434Z,64.39
2023-04-15T00:22:56.576Z,67.10
2023-04-15T00:27:59.899Z,64.41
2023-04-15T00:33:04.878Z,65.98
2023-04-15T00:38:10.219Z,65.12
2023-04-15T00:43:13.787Z,68.80
2023-04-15T00:48:16.412Z,71.38
2023-04-15T00:53:18.345Z,72.26
2023-04-15T00:58:21.808Z,75.37
2023-04-15T01:03:24.315Z,73.59
2023-04-15T01:08:27.517Z,74.21
2023-04-15T01:13:31.253Z,73.27
2023-04-15T01:18:33.683Z,74.41
2023-04-15T01:23:38.520Z,71.31
2023-04-15T01:28:41.986Z,74.47
2023-04-15T01:33:44.025Z,73.09
2023-04-15T01:38:46.298Z,73.63
2023-04-15T01:43:49.587Z,72.74
2023-04-15T01:48:51.642Z,75.33
2023-04-15T01:53:53.706Z,73.60
2023-04-15T01:58:57.067Z,74.82
2023-04-15T02:03:59.105Z,76.26
2023-04-15T02:09:01.360Z,76.62
2023-04-15T02:14:05.806Z,76.25
2023-04-15T02:19:07.961Z,76.76
2023-04-15T02:24:10.130Z,76.16
2023-04-15T02:29:13.522Z,76.08
2023-04-15T02:34:15.380Z,79.84
2023-04-15T02:39:18.606Z,80.67
2023-04-15T02:44:23.413Z,81.24
2023-04-15T02:49:25.886Z,83.55
2023-04-15T02:54:30.940Z,83.48
2023-04-15T02:59:34.269Z,84.43
2023-04-15T03:04:36.218Z,85.09
2023-04-15T03:09:40.439Z,86.82
2023-04-15T03:14:43.737Z,87.76
2023-04-15T03:19:45.737Z,87.68
2023-04-15T03:24:47.761Z,87.80
2023-04-15T03:29:51.609Z,88.27
2023-04-15T03:34:53.515Z,87.99
2023-04-15T03:39:55.529Z,89.47
2023-04-15T03:44:59.380Z,90.34
2023-04-15T03:50:01.324Z,90.23
2023-04-15T03:55:03.600Z,91.12
2023-04-15T04:00:09.507Z,90.79
2023-04-15T04:05:11.525Z,90.16
2023-04-15T04:10:13.471Z,89.81
2023-04-15T04:15:17.034Z,89.73
2023-04-15T04:20:18.889Z,90.38
2023-04-15T04:25:20.812Z,89.76
2023-04-15T04:30:24.109Z,88.93
2023-04-15T04:35:26.378Z,89.69
2023-04-15T04:40:28.320Z,88.93
2023-04-15T04:45:31.804Z,88.75
2023-04-15T04:50:33.724Z,88.42
2023-04-15T04:55:37.056Z,85.76
2023-04-15T05:00:42.090Z,84.93
2023-04-15T05:05:44.120Z,86.33
2023-04-15T05:10:46.324Z,84.73
2023-04-15T05:15:49.774Z,82.70
2023-04-15T05:20:51.770Z,82.21
2023-04-15T05:25:53.752Z,82.74
2023-04-15T05:30:57.240Z,82.35
2023-04-15T05:35:59.263Z,78.80
2023-04-15T05:41:01.360Z,76.14
2023-04-15T05:46:04.978Z,69.00
2023-04-15T05:51:06.995Z,69.19
2023-04-15T05:56:08.940Z,70.24
2023-04-15T06:01:12.415Z,67.17
2023-04-15T06:06:15.471Z,68.03
2023-04-15T06:11:17.477Z,67.03
2023-04-15T06:16:21.163Z,65.28
2023-04-15T06:21:23.245Z,65.83
2023-04-15T06:26:25.215Z,64.66
2023-04-15T06:31:28.565Z,64.69
2023-04-15T06:36:30.594Z,64.86
2023-04-15T06:41:32.936Z,65.74
2023-04-15T06:46:36.237Z,62.56
2023-04-15T06:51:38.255Z,63.41
2023-04-15T06:56:40.307Z,61.15
2023-04-15T07:01:43.820Z,61.78
2023-04-15T07:06:46.070Z,61.86
2023-04-15T07:11:48.768Z,60.73
2023-04-15T07:16:53.298Z,62.17
2023-04-15T07:21:55.893Z,57.83
2023-04-15T07:27:00.319Z,52.67
2023-04-15T07:32:05.070Z,57.36
2023-04-15T07:37:07.294Z,55.00
2023-04-15T07:42:09.477Z,56.86
2023-04-15T07:47:12.819Z,56.85
2023-04-15T07:52:14.803Z,57.45
2023-04-15T07:57:17.812Z,54.39
2023-04-15T08:02:21.815Z,53.64
2023-04-15T08:07:23.942Z,53.58
2023-04-15T08:12:26.256Z,54.45
2023-04-15T08:17:29.805Z,53.77
2023-04-15T08:22:31.824Z,55.85
2023-04-15T08:27:33.808Z,55.16
2023-04-15T08:32:37.890Z,53.59
2023-04-15T08:37:39.881Z,55.35
2023-04-15T08:42:46.909Z,50.72
2023-04-15T08:47:54.141Z,52.33
2023-04-15T08:52:58.637Z,44.52
2023-04-15T08:58:01.717Z,43.23
2023-04-15T09:03:05.230Z,44.96
2023-04-15T09:08:07.506Z,46.69
2023-04-15T09:13:09.643Z,45.09
2023-04-15T09:18:16.164Z,45.96
2023-04-15T09:23:18.104Z,46.48
2023-04-15T09:28:25.781Z,44.81
2023-04-15T09:33:30.080Z,45.18
2023-04-15T09:38:32.365Z,42.90
2023-04-15T09:43:38.993Z,42.62
2023-04-15T09:48:42.358Z,42.85
2023-04-15T09:53:44.310Z,42.96
2023-04-15T09:58:46.646Z,41.37
2023-04-15T10:03:50.788Z,39.56
2023-04-15T10:08:54.088Z,41.76
2023-04-15T10:13:57.150Z,41.46
2023-04-15T10:19:04.407Z,42.68
2023-04-15T10:24:07.073Z,40.85
2023-04-15T10:29:10.706Z,39.44
2023-04-15T10:34:15.963Z,40.33
2023-04-15T10:39:39.263Z,38.43
2023-04-15T10:44:43.028Z,39.23
2023-04-15T10:49:48.171Z,38.91
2023-04-15T10:54:50.317Z,41.30
2023-04-15T11:00:13.407Z,39.25
2023-04-15T11:05:18.041Z,38.37
2023-04-15T11:10:52.358Z,38.75
2023-04-15T11:15:58.881Z,39.46
2023-04-15T11:21:04.417Z,39.68
2023-04-15T11:26:09.740Z,36.56
2023-04-15T11:31:13.722Z,36.45
2023-04-15T11:36:17.107Z,37.06
2023-04-15T11:41:21.247Z,38.23
2023-04-15T11:46:29.857Z,40.19
2023-04-15T11:51:34.404Z,43.10
2023-04-15T11:56:36.418Z,46.85
2023-04-15T12:01:47.514Z,46.90
2023-04-15T12:06:50.886Z,46.70
2023-04-15T12:11:53.787Z,43.34
2023-04-15T12:16:59.932Z,45.33
2023-04-15T12:22:05.259Z,46.93
2023-04-15T12:27:08.959Z,47.30
2023-04-15T12:32:11.956Z,46.01
2023-04-15T12:37:15.944Z,47.13
2023-04-15T12:42:18.527Z,46.98
2023-04-15T12:47:20.684Z,47.90
2023-04-15T12:52:25.034Z,48.70
2023-04-15T12:57:27.604Z,48.16
2023-04-15T13:02:29.556Z,47.47
2023-04-15T13:07:33.077Z,47.35
2023-04-15T13:12:38.107Z,47.98
2023-04-15T13:17:40.092Z,49.16
2023-04-15T13:22:43.431Z,50.50
2023-04-15T13:27:45.443Z,52.71
2023-04-15T13:32:49.350Z,51.91
2023-04-15T13:37:56.256Z,53.50
2023-04-15T13:42:58.574Z,52.53
2023-04-15T13:48:01.031Z,55.16
2023-04-15T13:53:04.407Z,56.26
2023-04-15T13:58:06.349Z,56.55
2023-04-15T14:03:08.393Z,57.50
2023-04-15T14:08:11.847Z,57.28
2023-04-15T14:13:15.051Z,58.46
2023-04-15T14:18:17.027Z,56.96
2023-04-15T14:23:20.394Z,58.59
2023-04-15T14:28:22.369Z,59.88
2023-04-15T14:33:24.337Z,59.91
2023-04-15T14:38:27.727Z,62.52
2023-04-15T14:43:29.683Z,65.67
2023-04-15T14:48:31.971Z,69.49
2023-04-15T14:53:35.335Z,74.02
2023-04-15T14:58:37.505Z,77.37
2023-04-15T15:03:39.695Z,76.59
2023-04-15T15:08:43.074Z,75.16
2023-04-15T15:13:45.062Z,80.72
2023-04-15T15:18:47.072Z,80.35
2023-04-15T15:23:50.794Z,81.69
2023-04-15T15:28:52.786Z,78.94
2023-04-15T15:33:54.795Z,86.45
2023-04-15T15:38:59.729Z,84.31
2023-04-15T15:44:01.910Z,81.96
2023-04-15T15:49:04.264Z,83.92
2023-04-15T15:54:07.765Z,84.19
2023-04-15T15:59:09.742Z,83.31
2023-04-15T16:04:12.197Z,84.48
2023-04-15T16:09:16.099Z,85.46
2023-04-15T16:14:18.320Z,85.46
2023-04-15T16:19:20.816Z,85.09
2023-04-15T16:24:24.685Z,86.74
2023-04-15T16:29:26.703Z,87.35
2023-04-15T16:34:28.720Z,88.70
2023-04-15T16:39:32.105Z,86.83
2023-04-15T16:44:34.048Z,87.35
2023-04-15T16:49:36.157Z,87.53
2023-04-15T16:54:41.413Z,88.89
2023-04-15T16:59:43.510Z,88.65
2023-04-15T17:04:45.518Z,88.99
2023-04-15T17:09:49.122Z,88.87
2023-04-15T17:14:51.211Z,87.19
2023-04-15T17:19:53.271Z,84.72
2023-04-15T17:24:56.534Z,85.82
2023-04-15T17:29:58.518Z,86.86
2023-04-15T17:35:00.711Z,87.00
2023-04-15T17:40:06.733Z,86.65
2023-04-15T17:45:11.435Z,87.73
2023-04-15T17:50:13.409Z,89.01
2023-04-15T17:55:17.157Z,89.81
2023-04-15T18:00:19.217Z,89.95
2023-04-15T18:05:21.564Z,90.69
2023-04-15T18:10:25.109Z,91.55
2023-04-15T18:15:27.153Z,93.82
2023-04-15T18:20:29.538Z,93.88
2023-04-15T18:25:34.086Z,94.60
2023-04-15T18:30:36.119Z,94.39
2023-04-15T18:35:38.589Z,94.42
2023-04-15T18:40:41.923Z,94.74
2023-04-15T18:45:44.042Z,94.70
2023-04-15T18:50:46.110Z,95.23
2023-04-15T18:55:49.457Z,95.09
2023-04-15T19:00:51.674Z,94.36
2023-04-15T19:05:53.746Z,92.74
2023-04-15T19:10:57.085Z,94.08
2023-04-15T19:15:59.044Z,94.93
2023-04-15T19:21:01.184Z,93.52
2023-04-15T19:26:04.533Z,91.41
2023-04-15T19:31:06.764Z,89.13
2023-04-15T19:36:08.827Z,89.80
2023-04-15T19:41:12.210Z,89.41
2023-04-15T19:46:14.301Z,88.59
2023-04-15T19:51:16.345Z,85.86
2023-04-15T19:56:19.783Z,85.12
2023-04-15T20:01:22.453Z,82.33
2023-04-15T20:06:24.448Z,80.24
2023-04-15T20:12:45.969Z,83.34
2023-04-15T20:16:51.305Z,83.86
2023-04-15T20:21:54.260Z,87.03
2023-04-15T20:26:57.629Z,87.82
2023-04-15T20:31:59.598Z,90.38
2023-04-15T20:37:01.565Z,90.38
2023-04-15T20:42:05.024Z,89.38
2023-04-15T20:47:07.363Z,89.89
2023-04-15T20:52:09.464Z,88.63
2023-04-15T20:57:12.927Z,89.42
2023-04-15T21:02:15.025Z,90.00
2023-04-15T21:07:17.068Z,90.69
2023-04-15T21:12:20.423Z,89.20
2023-04-15T21:17:22.314Z,87.64
2023-04-15T21:22:24.284Z,87.37
2023-04-15T21:27:27.631Z,86.53
2023-04-15T21:32:30.612Z,87.42
2023-04-15T21:37:32.728Z,87.51
2023-04-15T21:42:36.055Z,88.60
2023-04-15T21:48:04.840Z,88.20
2023-04-15T21:52:59.938Z,85.86
2023-04-15T21:58:03.258Z,85.58
2023-04-15T22:03:05.232Z,86.27
2023-04-15T22:08:07.844Z,86.68
2023-04-15T22:13:12.790Z,88.04
2023-04-15T22:18:14.817Z,85.92
2023-04-15T22:23:20.237Z,84.49
2023-04-15T22:28:23.553Z,85.13
2023-04-15T22:33:25.394Z,86.59
2023-04-15T22:38:27.545Z,85.48
2023-04-15T22:43:30.985Z,85.81
2023-04-15T22:48:33.917Z,86.67
2023-04-15T22:53:35.896Z,86.99
2023-04-15T22:58:39.252Z,87.17
2023-04-15T23:03:55.606Z,87.02
2023-04-15T23:09:00.798Z,87.13
2023-04-15T23:14:04.132Z,87.65
2023-04-15T23:19:06.236Z,89.33
2023-04-15T23:24:08.232Z,90.73
2023-04-15T23:29:11.816Z,91.49
2023-04-15T23:34:13.914Z,92.05
2023-04-15T23:39:15.871Z,93.60
2023-04-15T23:44:19.134Z,94.08
2023-04-15T23:49:21.069Z,94.29
2023-04-15T23:54:23.177Z,94.66
2023-04-15T23:59:26.508Z,95.35
